createdAt,value
2022-10-08T00:01:07.466Z,24.10
2022-10-08T00:03:37.731Z,22.27
2022-10-08T00:06:13.150Z,23.33
2022-10-08T00:08:42.087Z,22.83
2022-10-08T00:11:16.394Z,23.00
2022-10-08T00:13:45.469Z,22.92
2022-10-08T00:16:19.913Z,23.25
2022-10-08T00:18:48.351Z,21.42
2022-10-08T00:21:17.323Z,23.70
2022-10-08T00:23:46.822Z,24.27
2022-10-08T00:26:15.419Z,22.58
2022-10-08T00:28:45.304Z,21.52
2022-10-08T00:31:21.076Z,25.42
2022-10-08T00:33:56.446Z,20.55
2022-10-08T00:36:25.355Z,25.85
2022-10-08T00:39:00.033Z,22.65
2022-10-08T00:41:32.025Z,22.77
2022-10-08T00:44:04.246Z,21.58
2022-10-08T00:46:36.614Z,22.30
2022-10-08T00:49:11.365Z,21.95
2022-10-08T00:51:44.025Z,23.33
2022-10-08T00:54:12.746Z,22.42
2022-10-08T00:56:40.690Z,23.45
2022-10-08T00:59:08.774Z,19.90
2022-10-08T01:01:35.904Z,23.00
2022-10-08T01:04:07.179Z,22.25
2022-10-08T01:06:55.138Z,21.77
2022-10-08T01:09:29.428Z,21.95
2022-10-08T01:12:16.801Z,24.83
2022-10-08T01:15:02.083Z,24.63
2022-10-08T01:17:49.772Z,19.33
2022-10-08T01:20:43.496Z,20.60
2022-10-08T01:23:34.513Z,23.77
2022-10-08T01:26:20.735Z,23.88
2022-10-08T01:29:28.009Z,20.48
2022-10-08T01:32:03.336Z,20.55
2022-10-08T01:34:52.992Z,21.58
2022-10-08T01:37:29.181Z,22.55
2022-10-08T01:39:59.347Z,21.02
2022-10-08T01:42:27.931Z,23.77
2022-10-08T01:45:02.087Z,22.20
2022-10-08T01:47:30.970Z,19.73
2022-10-08T01:50:03.954Z,21.50
2022-10-08T01:52:41.864Z,20.70
2022-10-08T01:55:22.757Z,20.85
2022-10-08T01:57:51.495Z,21.73
2022-10-08T02:00:18.299Z,19.55
2022-10-08T02:02:45.273Z,21.25
2022-10-08T02:05:12.402Z,19.08
2022-10-08T02:07:42.367Z,18.70
2022-10-08T02:10:10.985Z,18.35
2022-10-08T02:12:40.208Z,18.80
2022-10-08T02:15:11.889Z,16.65
2022-10-08T02:17:51.564Z,19.00
2022-10-08T02:20:20.883Z,17.35
2022-10-08T02:22:58.692Z,16.42
2022-10-08T02:25:34.342Z,16.38
2022-10-08T02:28:24.177Z,16.20
2022-10-08T02:31:00.025Z,17.92
2022-10-08T02:33:28.711Z,16.40
2022-10-08T02:35:57.417Z,15.27
2022-10-08T02:38:32.509Z,17.23
2022-10-08T02:41:01.489Z,16.30
2022-10-08T02:43:31.440Z,16.75
2022-10-08T02:46:27.449Z,14.93
2022-10-08T02:48:57.420Z,16.40
2022-10-08T02:51:25.901Z,15.98
2022-10-08T02:53:53.160Z,17.65
2022-10-08T02:56:27.708Z,14.20
2022-10-08T02:58:55.806Z,14.40
2022-10-08T03:01:30.499Z,13.85
2022-10-08T03:04:12.584Z,17.08
2022-10-08T03:06:40.096Z,14.75
2022-10-08T03:09:07.846Z,14.82
2022-10-08T03:11:35.511Z,13.70
2022-10-08T03:14:03.829Z,16.42
2022-10-08T03:16:39.158Z,14.40
2022-10-08T03:19:07.571Z,14.32
2022-10-08T03:21:34.685Z,15.45
2022-10-08T03:24:01.744Z,15.65
2022-10-08T03:26:28.809Z,14.88
2022-10-08T03:28:55.838Z,14.82
2022-10-08T03:31:23.066Z,13.05
2022-10-08T03:33:53.460Z,14.90
2022-10-08T03:36:21.395Z,15.57
2022-10-08T03:38:48.707Z,13.93
2022-10-08T03:41:16.097Z,13.30
2022-10-08T03:43:43.465Z,14.10
2022-10-08T03:46:13.795Z,11.52
2022-10-08T03:48:41.011Z,12.13
2022-10-08T03:51:12.442Z,11.60
2022-10-08T03:53:40.143Z,15.15
2022-10-08T03:56:09.068Z,15.32
2022-10-08T03:58:36.312Z,11.82
2022-10-08T04:01:07.864Z,11.80
2022-10-08T04:03:35.281Z,12.15
2022-10-08T04:06:02.327Z,12.10
2022-10-08T04:08:29.415Z,10.63
2022-10-08T04:10:56.680Z,12.98
2022-10-08T04:13:23.745Z,12.77
2022-10-08T04:15:50.935Z,13.98
2022-10-08T04:18:18.374Z,11.82
2022-10-08T04:20:45.553Z,13.30
2022-10-08T04:23:12.669Z,12.35
2022-10-08T04:25:39.718Z,13.90
2022-10-08T04:28:07.024Z,14.88
2022-10-08T04:30:34.080Z,12.50
2022-10-08T04:33:01.210Z,15.45
2022-10-08T04:35:28.216Z,11.13
2022-10-08T04:37:55.204Z,12.13
2022-10-08T04:40:22.208Z,12.82
2022-10-08T04:42:52.310Z,11.80
2022-10-08T04:45:19.309Z,15.20
2022-10-08T04:47:46.453Z,11.05
2022-10-08T04:50:13.493Z,10.18
2022-10-08T04:52:40.547Z,11.32
2022-10-08T04:55:07.955Z,11.10
2022-10-08T04:57:34.932Z,13.00
2022-10-08T05:00:18.811Z,10.25
2022-10-08T05:05:13.914Z,10.18
2022-10-08T05:07:40.932Z,12.60
2022-10-08T05:10:08.094Z,10.25
2022-10-08T05:12:35.135Z,13.48
2022-10-08T05:15:02.196Z,8.60
2022-10-08T05:17:29.232Z,9.00
2022-10-08T05:19:56.237Z,9.57
2022-10-08T05:22:23.240Z,14.18
2022-10-08T05:24:50.237Z,12.05
2022-10-08T05:27:17.279Z,10.95
2022-10-08T05:29:44.316Z,10.90
2022-10-08T05:32:11.308Z,10.55
2022-10-08T05:34:38.368Z,9.95
2022-10-08T05:37:05.347Z,15.27
2022-10-08T05:39:32.358Z,12.10
2022-10-08T05:41:59.481Z,12.98
2022-10-08T05:44:26.461Z,10.82
2022-10-08T05:46:53.488Z,9.60
2022-10-08T05:49:21.956Z,11.70
2022-10-08T05:51:49.560Z,9.77
2022-10-08T05:54:17.161Z,12.32
2022-10-08T05:56:44.630Z,10.60
2022-10-08T05:59:19.446Z,9.23
2022-10-08T06:01:46.755Z,11.07
2022-10-08T06:04:13.842Z,11.38
2022-10-08T06:06:41.622Z,9.43
2022-10-08T06:09:09.801Z,11.23
2022-10-08T06:11:37.857Z,11.85
2022-10-08T06:14:06.318Z,11.85
2022-10-08T06:16:33.778Z,10.05
2022-10-08T06:19:03.011Z,10.18
2022-10-08T06:21:30.676Z,8.25
2022-10-08T06:23:59.132Z,11.45
2022-10-08T06:26:31.621Z,11.25
2022-10-08T06:29:01.567Z,9.70
2022-10-08T06:31:28.736Z,13.52
2022-10-08T06:33:57.114Z,10.02
2022-10-08T06:36:28.065Z,10.88
2022-10-08T06:38:59.118Z,8.82
2022-10-08T06:41:26.707Z,10.50
2022-10-08T06:43:54.344Z,17.15
2022-10-08T06:46:21.423Z,12.73
2022-10-08T06:48:48.706Z,10.43
2022-10-08T06:51:17.324Z,12.45
2022-10-08T06:53:45.057Z,12.00
2022-10-08T06:56:18.263Z,9.85
2022-10-08T06:58:45.904Z,15.85
2022-10-08T07:01:31.850Z,9.70
2022-10-08T07:04:03.452Z,8.55
2022-10-08T07:06:30.729Z,9.75
2022-10-08T07:08:59.008Z,8.80
2022-10-08T07:11:26.401Z,9.38
2022-10-08T07:13:54.850Z,13.30
2022-10-08T07:16:23.107Z,12.23
2022-10-08T07:18:51.442Z,9.35
2022-10-08T07:21:19.206Z,11.07
2022-10-08T07:23:46.487Z,8.15
2022-10-08T07:26:20.925Z,10.48
2022-10-08T07:28:58.362Z,9.27
2022-10-08T07:31:30.181Z,9.20
2022-10-08T07:34:00.426Z,10.07
2022-10-08T07:36:28.047Z,8.82
2022-10-08T07:38:56.180Z,8.35
2022-10-08T07:41:23.257Z,8.48
2022-10-08T07:43:51.277Z,9.93
2022-10-08T07:46:18.375Z,11.82
2022-10-08T07:48:45.370Z,9.80
2022-10-08T07:51:17.187Z,10.13
2022-10-08T07:53:44.659Z,8.93
2022-10-08T07:56:13.392Z,9.98
2022-10-08T07:58:40.891Z,8.30
2022-10-08T08:01:09.227Z,11.57
2022-10-08T08:03:36.402Z,14.88
2022-10-08T08:06:21.696Z,14.07
2022-10-08T08:08:48.690Z,7.60
2022-10-08T08:11:16.250Z,11.00
2022-10-08T08:13:43.284Z,8.27
2022-10-08T08:16:12.332Z,10.32
2022-10-08T08:18:40.785Z,10.20
2022-10-08T08:21:12.214Z,10.38
2022-10-08T08:23:40.804Z,7.57
2022-10-08T08:26:09.661Z,11.55
2022-10-08T08:28:36.986Z,10.50
2022-10-08T08:31:11.470Z,7.88
2022-10-08T08:33:38.662Z,8.65
2022-10-08T08:36:05.716Z,12.25
2022-10-08T08:38:35.452Z,13.75
2022-10-08T08:41:21.029Z,10.20
2022-10-08T08:43:48.627Z,12.02
2022-10-08T08:46:18.803Z,11.23
2022-10-08T08:48:46.555Z,9.27
2022-10-08T08:51:13.660Z,12.07
2022-10-08T08:53:40.660Z,13.02
2022-10-08T08:56:08.293Z,13.73
2022-10-08T08:58:41.856Z,9.90
2022-10-08T09:01:08.928Z,13.75
2022-10-08T09:03:41.559Z,9.50
2022-10-08T09:06:10.136Z,12.18
2022-10-08T09:08:41.034Z,13.18
2022-10-08T09:11:12.835Z,11.40
2022-10-08T09:13:45.871Z,8.77
2022-10-08T09:16:14.060Z,10.83
2022-10-08T09:18:43.494Z,9.43
2022-10-08T09:21:10.544Z,8.02
2022-10-08T09:23:37.690Z,11.13
2022-10-08T09:26:23.443Z,12.77
2022-10-08T09:28:52.314Z,12.80
2022-10-08T09:31:38.315Z,7.97
2022-10-08T09:34:15.694Z,10.20
2022-10-08T09:36:45.614Z,11.75
2022-10-08T09:39:21.609Z,13.15
2022-10-08T09:42:04.769Z,9.85
2022-10-08T09:44:47.980Z,13.20
2022-10-08T09:47:18.066Z,11.77
2022-10-08T09:49:49.930Z,9.82
2022-10-08T09:52:17.585Z,12.80
2022-10-08T09:54:49.147Z,10.65
2022-10-08T09:57:20.944Z,14.07
2022-10-08T10:00:05.417Z,8.90
2022-10-08T10:02:35.224Z,9.70
2022-10-08T10:05:04.509Z,12.52
2022-10-08T10:07:44.812Z,8.90
2022-10-08T10:10:14.822Z,10.90
2022-10-08T10:12:43.131Z,10.63
2022-10-08T10:15:10.159Z,8.70
2022-10-08T10:17:40.278Z,15.15
2022-10-08T10:20:18.041Z,12.15
2022-10-08T10:22:50.913Z,14.85
2022-10-08T10:25:30.604Z,11.45
2022-10-08T10:28:00.747Z,15.77
2022-10-08T10:30:28.752Z,11.77
2022-10-08T10:32:55.760Z,10.52
2022-10-08T10:35:25.514Z,8.00
2022-10-08T10:38:10.207Z,14.43
2022-10-08T10:41:02.463Z,8.50
2022-10-08T10:43:43.815Z,12.48
2022-10-08T10:46:10.845Z,17.83
2022-10-08T10:48:37.926Z,11.43
2022-10-08T10:51:20.297Z,10.90
2022-10-08T10:54:05.643Z,14.23
2022-10-08T10:56:37.655Z,11.68
2022-10-08T10:59:13.886Z,14.18
2022-10-08T11:01:55.639Z,11.00
2022-10-08T11:04:39.358Z,13.55
2022-10-08T11:07:14.571Z,11.30
2022-10-08T11:09:44.866Z,10.88
2022-10-08T11:12:44.835Z,12.38
2022-10-08T11:15:14.915Z,12.98
2022-10-08T11:17:49.091Z,18.23
2022-10-08T11:20:27.066Z,11.60
2022-10-08T11:23:03.908Z,11.73
2022-10-08T11:25:49.968Z,10.73
2022-10-08T11:28:36.652Z,9.88
2022-10-08T11:31:06.548Z,12.32
2022-10-08T11:33:34.062Z,12.85
2022-10-08T11:36:07.346Z,11.90
2022-10-08T11:38:45.288Z,17.23
2022-10-08T11:41:34.091Z,14.68
2022-10-08T11:44:02.148Z,16.02
2022-10-08T11:46:31.474Z,17.80
2022-10-08T11:49:10.658Z,11.60
2022-10-08T11:51:38.733Z,10.85
2022-10-08T11:54:12.491Z,13.20
2022-10-08T11:56:41.194Z,17.88
2022-10-08T11:59:21.577Z,12.82
2022-10-08T12:01:52.976Z,12.07
2022-10-08T12:04:21.588Z,11.57
2022-10-08T12:06:49.708Z,16.35
2022-10-08T12:09:24.023Z,12.73
2022-10-08T12:11:54.218Z,14.20
2022-10-08T12:14:21.525Z,18.25
2022-10-08T12:16:48.636Z,16.88
2022-10-08T12:19:34.184Z,11.82
2022-10-08T12:22:02.575Z,17.67
2022-10-08T12:24:38.406Z,14.30
2022-10-08T12:27:25.703Z,11.82
2022-10-08T12:30:01.682Z,18.02
2022-10-08T12:32:30.076Z,15.65
2022-10-08T12:34:57.481Z,17.05
2022-10-08T12:37:36.765Z,15.48
2022-10-08T12:40:10.012Z,13.38
2022-10-08T12:42:38.674Z,15.02
2022-10-08T12:45:08.554Z,14.57
2022-10-08T12:47:42.404Z,17.92
2022-10-08T12:50:27.671Z,18.38
2022-10-08T12:52:54.808Z,14.23
2022-10-08T12:55:23.214Z,14.18
2022-10-08T12:57:51.472Z,16.90
2022-10-08T13:00:23.952Z,15.35
2022-10-08T13:03:01.715Z,15.20
2022-10-08T13:05:28.731Z,15.32
2022-10-08T13:07:55.781Z,20.63
2022-10-08T13:10:26.769Z,16.23
2022-10-08T13:13:00.711Z,20.08
2022-10-08T13:17:54.955Z,14.80
2022-10-08T13:20:23.113Z,16.83
2022-10-08T13:22:50.206Z,21.40
2022-10-08T13:25:34.209Z,18.30
2022-10-08T13:28:08.967Z,20.52
2022-10-08T13:30:36.025Z,21.20
2022-10-08T13:33:04.642Z,17.40
2022-10-08T13:35:33.333Z,20.33
2022-10-08T13:38:01.327Z,19.95
2022-10-08T13:40:28.351Z,16.98
2022-10-08T13:42:56.171Z,20.90
2022-10-08T13:45:24.487Z,17.23
2022-10-08T13:47:52.328Z,19.45
2022-10-08T13:50:19.895Z,17.55
2022-10-08T13:52:53.719Z,27.83
2022-10-08T13:55:41.043Z,17.83
2022-10-08T13:58:08.486Z,20.83
2022-10-08T14:00:37.160Z,24.02
2022-10-08T14:03:04.235Z,19.95
2022-10-08T14:05:33.395Z,19.77
2022-10-08T14:08:01.810Z,18.95
2022-10-08T14:10:28.856Z,21.98
2022-10-08T14:12:55.880Z,26.77
2022-10-08T14:15:22.961Z,23.73
2022-10-08T14:17:50.595Z,22.08
2022-10-08T14:20:17.691Z,21.33
2022-10-08T14:22:44.748Z,24.67
2022-10-08T14:25:16.789Z,24.33
2022-10-08T14:27:44.466Z,24.25
2022-10-08T14:30:12.367Z,21.60
2022-10-08T14:32:39.433Z,22.20
2022-10-08T14:35:06.815Z,21.48
2022-10-08T14:37:34.549Z,22.83
2022-10-08T14:40:01.645Z,25.80
2022-10-08T14:42:28.669Z,24.88
2022-10-08T14:44:55.715Z,26.63
2022-10-08T14:47:23.767Z,24.92
2022-10-08T14:49:50.963Z,22.38
2022-10-08T14:52:17.995Z,20.02
2022-10-08T14:54:45.213Z,25.05
2022-10-08T14:57:12.254Z,22.20
2022-10-08T14:59:41.075Z,20.45
2022-10-08T15:02:10.331Z,24.25
2022-10-08T15:04:37.407Z,19.83
2022-10-08T15:07:04.476Z,22.25
2022-10-08T15:09:31.739Z,23.00
2022-10-08T15:11:59.049Z,21.10
2022-10-08T15:14:26.316Z,27.70
2022-10-08T15:16:53.418Z,21.10
2022-10-08T15:19:23.719Z,20.42
2022-10-08T15:21:52.244Z,22.75
2022-10-08T15:24:19.323Z,20.95
2022-10-08T15:26:46.335Z,18.27
2022-10-08T15:29:13.307Z,24.55
2022-10-08T15:31:40.375Z,24.30
2022-10-08T15:34:07.665Z,24.92
2022-10-08T15:36:36.836Z,21.52
2022-10-08T15:39:07.651Z,21.63
2022-10-08T15:41:36.485Z,24.83
2022-10-08T15:44:10.901Z,25.33
2022-10-08T15:46:37.986Z,27.23
2022-10-08T15:49:05.585Z,22.17
2022-10-08T15:51:33.696Z,25.30
2022-10-08T15:54:01.284Z,23.70
2022-10-08T15:56:28.775Z,23.98
2022-10-08T15:58:55.954Z,23.63
2022-10-08T16:01:23.933Z,26.02
2022-10-08T16:03:53.367Z,24.90
2022-10-08T16:06:24.441Z,25.08
2022-10-08T16:08:51.825Z,24.05
2022-10-08T16:11:18.798Z,24.48
2022-10-08T16:13:47.558Z,26.17
2022-10-08T16:16:17.018Z,23.50
2022-10-08T16:18:45.107Z,24.88
2022-10-08T16:21:12.728Z,25.02
2022-10-08T16:23:39.806Z,26.45
2022-10-08T16:26:08.031Z,24.48
2022-10-08T16:28:36.294Z,29.55
2022-10-08T16:31:04.238Z,25.60
2022-10-08T16:33:31.641Z,23.38
2022-10-08T16:36:02.312Z,27.77
2022-10-08T16:38:30.352Z,27.15
2022-10-08T16:41:08.848Z,27.13
2022-10-08T16:43:35.881Z,26.10
2022-10-08T16:46:02.971Z,28.75
2022-10-08T16:48:30.026Z,25.92
2022-10-08T16:50:57.039Z,23.92
2022-10-08T16:53:24.039Z,27.38
2022-10-08T16:55:51.031Z,28.63
2022-10-08T16:58:18.113Z,33.97
2022-10-08T17:00:45.107Z,43.08
2022-10-08T17:03:12.103Z,74.03
2022-10-08T17:05:41.789Z,32.58
2022-10-08T17:08:09.007Z,28.17
2022-10-08T17:10:35.994Z,34.45
2022-10-08T17:13:02.999Z,86.60
2022-10-08T17:15:29.984Z,26.92
2022-10-08T17:17:57.142Z,28.10
2022-10-08T17:20:24.308Z,28.90
2022-10-08T17:22:51.456Z,23.05
2022-10-08T17:25:18.533Z,28.15
2022-10-08T17:27:45.830Z,25.40
2022-10-08T17:30:13.111Z,20.90
2022-10-08T17:32:40.155Z,21.38
2022-10-08T17:35:07.369Z,22.10
2022-10-08T17:37:34.423Z,21.17
2022-10-08T17:40:01.443Z,26.35
2022-10-08T17:42:28.452Z,18.60
2022-10-08T17:44:55.450Z,23.10
2022-10-08T17:47:25.796Z,17.00
2022-10-08T17:49:56.007Z,16.20
2022-10-08T17:52:22.987Z,24.73
2022-10-08T17:54:50.011Z,16.35
2022-10-08T17:57:17.053Z,16.98
2022-10-08T17:59:44.041Z,14.98
2022-10-08T18:02:11.197Z,15.10
2022-10-08T18:04:38.461Z,15.00
2022-10-08T18:07:05.843Z,19.13
2022-10-08T18:09:33.206Z,15.70
2022-10-08T18:12:00.258Z,12.25
2022-10-08T18:14:27.247Z,13.60
2022-10-08T18:16:54.323Z,15.85
2022-10-08T18:19:21.399Z,14.63
2022-10-08T18:21:48.500Z,19.05
2022-10-08T18:24:16.239Z,41.25
2022-10-08T18:26:43.289Z,42.67
2022-10-08T18:29:11.789Z,19.40
2022-10-08T18:31:40.306Z,19.35
2022-10-08T18:34:08.612Z,18.38
2022-10-08T18:36:36.585Z,20.95
2022-10-08T18:39:05.162Z,24.77
2022-10-08T18:41:33.835Z,20.38
2022-10-08T18:44:00.995Z,19.65
2022-10-08T18:46:28.601Z,17.70
2022-10-08T18:48:55.834Z,17.20
2022-10-08T18:51:26.892Z,15.18
2022-10-08T18:53:55.004Z,20.40
2022-10-08T18:56:25.257Z,24.60
2022-10-08T18:58:56.064Z,22.17
2022-10-08T19:01:24.533Z,18.23
2022-10-08T19:03:53.585Z,20.40
2022-10-08T19:06:21.490Z,20.25
2022-10-08T19:08:48.806Z,18.65
2022-10-08T19:11:17.392Z,19.05
2022-10-08T19:13:44.718Z,20.35
2022-10-08T19:16:15.331Z,19.23
2022-10-08T19:18:52.241Z,17.00
2022-10-08T19:21:19.556Z,22.30
2022-10-08T19:23:46.845Z,16.20
2022-10-08T19:26:13.905Z,19.45
2022-10-08T19:28:44.908Z,15.05
2022-10-08T19:31:13.080Z,16.67
2022-10-08T19:33:40.234Z,20.67
2022-10-08T19:36:07.276Z,17.38
2022-10-08T19:38:35.141Z,20.10
2022-10-08T19:41:06.598Z,17.10
2022-10-08T19:43:33.640Z,18.50
2022-10-08T19:46:07.165Z,17.35
2022-10-08T19:48:34.225Z,22.13
2022-10-08T19:51:05.264Z,16.67
2022-10-08T19:53:32.971Z,19.73
2022-10-08T19:56:01.383Z,19.75
2022-10-08T19:58:28.425Z,23.27
2022-10-08T20:00:59.421Z,22.15
2022-10-08T20:03:26.556Z,15.07
2022-10-08T20:05:53.708Z,18.08
2022-10-08T20:08:20.769Z,18.33
2022-10-08T20:10:47.809Z,17.60
2022-10-08T20:13:14.920Z,16.40
2022-10-08T20:15:42.131Z,17.10
2022-10-08T20:18:09.188Z,16.67
2022-10-08T20:20:36.191Z,17.52
2022-10-08T20:23:03.211Z,21.58
2022-10-08T20:25:30.224Z,16.25
2022-10-08T20:27:57.490Z,15.80
2022-10-08T20:30:24.537Z,19.77
2022-10-08T20:32:51.636Z,18.75
2022-10-08T20:35:18.691Z,19.33
2022-10-08T20:37:45.903Z,17.45
2022-10-08T20:40:12.919Z,21.70
2022-10-08T20:42:39.945Z,22.67
2022-10-08T20:45:08.266Z,18.50
2022-10-08T20:47:35.289Z,22.30
2022-10-08T20:50:02.281Z,20.77
2022-10-08T20:52:29.310Z,19.70
2022-10-08T20:54:56.288Z,17.20
2022-10-08T20:57:23.308Z,21.48
2022-10-08T20:59:50.299Z,18.20
2022-10-08T21:02:19.725Z,21.13
2022-10-08T21:04:47.072Z,16.83
2022-10-08T21:07:14.054Z,21.60
2022-10-08T21:09:41.027Z,20.05
2022-10-08T21:12:08.035Z,18.95
2022-10-08T21:14:35.191Z,16.00
2022-10-08T21:17:02.219Z,21.30
2022-10-08T21:19:29.205Z,19.67
2022-10-08T21:21:56.243Z,16.25
2022-10-08T21:24:23.241Z,13.82
2022-10-08T21:26:50.370Z,15.65
2022-10-08T21:29:17.551Z,15.90
2022-10-08T21:31:44.557Z,15.00
2022-10-08T21:34:12.922Z,12.63
2022-10-08T21:36:40.760Z,15.85
2022-10-08T21:39:08.761Z,15.48
2022-10-08T21:41:36.834Z,17.08
2022-10-08T21:44:05.008Z,13.60
2022-10-08T21:46:33.574Z,11.35
2022-10-08T21:49:02.160Z,11.55
2022-10-08T21:51:29.862Z,16.38
2022-10-08T21:53:58.998Z,12.48
2022-10-08T21:56:27.219Z,13.30
2022-10-08T21:58:55.231Z,12.95
2022-10-08T22:01:36.075Z,10.95
2022-10-08T22:04:04.614Z,13.00
2022-10-08T22:06:32.754Z,11.40
2022-10-08T22:09:00.420Z,12.73
2022-10-08T22:11:27.657Z,14.40
2022-10-08T22:13:54.681Z,12.98
2022-10-08T22:16:22.842Z,13.98
2022-10-08T22:18:49.965Z,11.30
2022-10-08T22:21:20.823Z,13.80
2022-10-08T22:23:48.393Z,14.52
2022-10-08T22:26:18.278Z,12.07
2022-10-08T22:28:45.847Z,13.50
2022-10-08T22:31:13.876Z,14.57
2022-10-08T22:33:41.226Z,11.85
2022-10-08T22:36:09.569Z,12.23
2022-10-08T22:38:38.769Z,9.90
2022-10-08T22:41:07.115Z,14.95
2022-10-08T22:43:34.211Z,11.55
2022-10-08T22:46:05.906Z,12.27
2022-10-08T22:48:33.198Z,10.98
2022-10-08T22:51:04.214Z,12.25
2022-10-08T22:53:31.389Z,11.95
2022-10-08T22:55:58.909Z,14.60
2022-10-08T22:58:26.335Z,12.07
2022-10-08T23:01:04.555Z,13.15
2022-10-08T23:03:31.700Z,13.18
2022-10-08T23:06:02.521Z,12.77
2022-10-08T23:08:29.679Z,13.05
2022-10-08T23:10:59.857Z,10.52
2022-10-08T23:13:26.993Z,11.90
2022-10-08T23:16:04.552Z,16.25
2022-10-08T23:18:32.466Z,25.38
2022-10-08T23:21:02.714Z,18.25
2022-10-08T23:23:29.935Z,13.25
2022-10-08T23:25:57.799Z,13.60
2022-10-08T23:28:25.156Z,13.95
2022-10-08T23:30:52.358Z,13.40
2022-10-08T23:33:19.534Z,12.48
2022-10-08T23:35:46.805Z,13.13
2022-10-08T23:38:14.187Z,12.20
2022-10-08T23:40:41.269Z,13.70
2022-10-08T23:43:08.305Z,11.85
2022-10-08T23:45:35.383Z,10.35
2022-10-08T23:48:02.461Z,11.43
2022-10-08T23:50:29.486Z,13.55
2022-10-08T23:52:56.545Z,12.07
2022-10-08T23:55:23.616Z,16.08
2022-10-08T23:57:50.635Z,11.32
